KSYI

Bomar Field-Shelbyville Municipal Airport

Shelbyville, Tennessee, USA
METAR KSYI 182215Z AUTO 36009KT 10SM CLR 28/21 A3008 RMK A01
Observed Flight Rules
Jun-18 @ 22:15 UTC (30 minutes ago) Visual Flight Rules
Wind Visibility Clouds
360° at 9 knots 10 miles
  • Clear skies
Temperatures Readings
Current 28°C / 82°F
Dewpoint 21°C / 70°F
Humidity 66%
Altimeter 30.08" Hg
Pressure 1019 hPa
Elevation 245
METAR KSYI 182215Z AUTO 36009KT 10SM CLR 28/21 A3008 RMK A01
Observed Flight Rules
Jun-18 @ 22:15 UTC
(30 minutes ago)
VFR
Wind Visibility
360° at 9 knots 10 miles
Clouds
  • Clear skies
Temperature Dewpoint
28°C / 82°F 21°C / 70°F
Humidity Altimeter Pressure
66% 30.08" Hg 1019 hPa